Time;durP1;ratioP1;P1;durP2;ratioP2;P2;SDS_P1;SDS_P2;PMS_P1;PMS_P2;Temp;Humidity;BMP_temperature;BMP_pressure;BME280_temperature;BME280_humidity;BME280_pressure;Samples;Min_cycle;Max_cycle;Signal;HPM_P1;HPM_P2
2023/07/07 00:01:19;;;;;;;15.10;8.73;;;;;;;;;;5053199;28;20390;-50
2023/07/07 00:03:45;;;;;;;13.00;7.90;;;;;;;;;;5052952;28;20409;-52
2023/07/07 00:06:11;;;;;;;14.67;8.50;;;;;;;;;;5052981;28;20762;-51
2023/07/07 00:08:37;;;;;;;12.50;8.47;;;;;;;;;;5053356;28;20841;-51
2023/07/07 00:11:04;;;;;;;14.03;8.00;;;;;;;;;;5052989;28;20786;-51
2023/07/07 00:13:30;;;;;;;10.00;7.40;;;;;;;;;;5053102;28;20481;-49
2023/07/07 00:16:03;;;;;;;9.00;6.07;;;;;;;;;;5053151;28;20454;-49
2023/07/07 00:18:29;;;;;;;12.83;6.50;;;;;;;;;;5051743;28;20418;-51
2023/07/07 00:20:59;;;;;;;10.07;6.10;;;;;;;;;;5052611;28;20387;-51
2023/07/07 00:23:26;;;;;;;10.93;5.87;;;;;;;;;;5052880;28;20771;-50
2023/07/07 00:26:21;;;;;;;11.30;6.13;;;;;;;;;;5052920;28;20878;-51
2023/07/07 00:28:47;;;;;;;6.67;5.20;;;;;;;;;;5029049;28;20416;-52
2023/07/07 00:31:14;;;;;;;7.33;5.20;;;;;;;;;;5052506;28;20410;-51
2023/07/07 00:33:40;;;;;;;11.20;4.00;;;;;;;;;;5058494;28;20407;-52
2023/07/07 00:36:06;;;;;;;6.83;4.47;;;;;;;;;;5052656;28;21015;-52
2023/07/07 00:38:32;;;;;;;3.70;3.30;;;;;;;;;;5052518;28;20427;-52
2023/07/07 00:41:01;;;;;;;6.00;3.97;;;;;;;;;;5052453;28;20733;-53
2023/07/07 00:43:27;;;;;;;6.63;3.50;;;;;;;;;;5052425;28;20385;-51
2023/07/07 00:45:53;;;;;;;6.63;4.10;;;;;;;;;;5052444;28;20462;-52
2023/07/07 00:48:25;;;;;;;5.57;4.00;;;;;;;;;;5052422;28;20434;-51
2023/07/07 00:50:55;;;;;;;6.73;4.57;;;;;;;;;;5052217;28;20555;-50
2023/07/07 00:53:21;;;;;;;9.33;4.00;;;;;;;;;;5052263;28;20544;-51
2023/07/07 00:55:50;;;;;;;4.73;3.10;;;;;;;;;;5052207;28;20460;-49
2023/07/07 00:58:18;;;;;;;3.87;3.23;;;;;;;;;;5052092;28;20485;-49
2023/07/07 01:00:46;;;;;;;4.70;3.93;;;;;;;;;;5051422;28;20396;-50
2023/07/07 01:03:22;;;;;;;5.83;4.63;;;;;;;;;;5051706;28;20417;-47
2023/07/07 01:05:49;;;;;;;5.97;3.63;;;;;;;;;;5051448;28;20477;-52
2023/07/07 01:08:15;;;;;;;6.93;4.00;;;;;;;;;;5051843;28;21031;-51
2023/07/07 01:10:41;;;;;;;6.27;4.50;;;;;;;;;;5051623;28;20919;-51
2023/07/07 01:13:07;;;;;;;4.63;3.70;;;;;;;;;;5051930;28;20416;-50
2023/07/07 01:15:35;;;;;;;9.20;4.60;;;;;;;;;;5050918;28;20511;-50
2023/07/07 01:18:06;;;;;;;5.60;3.50;;;;;;;;;;5051912;28;20417;-50
2023/07/07 01:20:41;;;;;;;5.50;4.23;;;;;;;;;;5051585;28;20457;-51
2023/07/07 01:23:10;;;;;;;6.90;4.60;;;;;;;;;;5051985;28;20903;-51
2023/07/07 01:26:05;;;;;;;7.83;4.37;;;;;;;;;;5051697;28;20388;-51
2023/07/07 01:28:31;;;;;;;7.97;5.70;;;;;;;;;;5050902;28;20466;-51
2023/07/07 01:31:05;;;;;;;8.00;5.47;;;;;;;;;;5051604;28;20436;-51
2023/07/07 01:33:32;;;;;;;7.03;4.93;;;;;;;;;;5051568;28;20449;-51
2023/07/07 01:35:58;;;;;;;4.47;4.07;;;;;;;;;;5035719;28;20449;-52
2023/07/07 01:38:33;;;;;;;4.93;3.90;;;;;;;;;;5051437;28;20439;-53
2023/07/07 01:41:07;;;;;;;8.73;4.37;;;;;;;;;;5051184;28;20405;-52
2023/07/07 01:43:39;;;;;;;12.57;5.60;;;;;;;;;;5051485;28;20395;-49
2023/07/07 01:46:08;;;;;;;8.30;4.83;;;;;;;;;;5051462;28;20923;-53
2023/07/07 01:48:36;;;;;;;6.70;4.70;;;;;;;;;;5051266;28;20435;-53
2023/07/07 01:51:03;;;;;;;5.43;4.30;;;;;;;;;;5051227;28;20413;-52
2023/07/07 01:53:30;;;;;;;7.67;4.30;;;;;;;;;;5051350;28;20417;-49
2023/07/07 01:55:58;;;;;;;7.37;4.03;;;;;;;;;;5051401;28;20465;-51
2023/07/07 01:58:25;;;;;;;6.30;3.63;;;;;;;;;;5051277;28;20535;-52
2023/07/07 02:00:52;;;;;;;17.67;4.60;;;;;;;;;;5051106;28;20950;-52
2023/07/07 02:03:19;;;;;;;4.40;4.00;;;;;;;;;;5051228;28;20432;-52
2023/07/07 02:05:46;;;;;;;7.40;4.20;;;;;;;;;;5051238;28;20407;-51
2023/07/07 02:08:12;;;;;;;5.70;3.10;;;;;;;;;;5051244;28;20799;-52
2023/07/07 02:10:38;;;;;;;4.47;3.50;;;;;;;;;;5048162;28;20436;-52
2023/07/07 02:13:04;;;;;;;5.03;3.93;;;;;;;;;;5048153;28;20413;-51
2023/07/07 02:15:30;;;;;;;5.67;3.33;;;;;;;;;;5051057;28;20453;-51
2023/07/07 02:17:57;;;;;;;3.73;3.17;;;;;;;;;;5051123;28;20428;-51
2023/07/07 02:20:23;;;;;;;4.50;3.57;;;;;;;;;;5051056;28;20983;-52
2023/07/07 02:22:49;;;;;;;5.00;3.80;;;;;;;;;;5051224;28;20380;-52
2023/07/07 02:25:15;;;;;;;6.40;3.97;;;;;;;;;;5050964;28;20413;-52
2023/07/07 02:27:41;;;;;;;7.53;4.47;;;;;;;;;;5054005;28;20437;-51
2023/07/07 02:30:08;;;;;;;7.13;3.47;;;;;;;;;;5061767;28;20414;-52
2023/07/07 02:32:34;;;;;;;3.87;3.57;;;;;;;;;;5054998;28;20474;-48
2023/07/07 02:35:01;;;;;;;8.30;4.03;;;;;;;;;;5054974;28;20514;-52
2023/07/07 02:37:27;;;;;;;5.93;4.30;;;;;;;;;;5055005;28;20414;-51
2023/07/07 02:39:54;;;;;;;4.47;4.07;;;;;;;;;;5054653;28;20384;-50
2023/07/07 02:42:20;;;;;;;8.57;4.27;;;;;;;;;;5054919;28;20927;-53
2023/07/07 02:44:46;;;;;;;10.07;4.00;;;;;;;;;;5055242;28;20443;-51
2023/07/07 02:47:12;;;;;;;7.50;4.67;;;;;;;;;;5054737;28;20432;-50
2023/07/07 02:49:38;;;;;;;8.00;4.50;;;;;;;;;;5054715;28;20455;-50
2023/07/07 02:52:05;;;;;;;5.13;4.63;;;;;;;;;;5054681;28;20462;-51
2023/07/07 02:54:31;;;;;;;5.80;4.03;;;;;;;;;;5054416;28;20902;-51
2023/07/07 02:56:57;;;;;;;9.10;4.20;;;;;;;;;;5054414;28;20416;-51
2023/07/07 02:59:23;;;;;;;8.07;3.33;;;;;;;;;;5054261;28;20387;-52
2023/07/07 03:01:49;;;;;;;10.93;3.70;;;;;;;;;;5054315;28;20785;-51
2023/07/07 03:04:15;;;;;;;9.60;4.27;;;;;;;;;;5054366;28;20455;-49
2023/07/07 03:06:41;;;;;;;6.40;5.40;;;;;;;;;;5054066;28;20949;-52
2023/07/07 03:09:08;;;;;;;7.40;4.50;;;;;;;;;;5054375;28;20927;-51
2023/07/07 03:11:34;;;;;;;4.57;3.57;;;;;;;;;;5054417;28;20733;-50
2023/07/07 03:14:00;;;;;;;6.80;4.90;;;;;;;;;;5054232;28;20413;-52
2023/07/07 03:16:30;;;;;;;5.53;4.00;;;;;;;;;;5053982;28;20887;-51
2023/07/07 03:18:57;;;;;;;6.70;4.70;;;;;;;;;;5054128;28;20425;-51
2023/07/07 03:21:23;;;;;;;6.40;4.50;;;;;;;;;;5053852;28;20475;-51
2023/07/07 03:23:55;;;;;;;4.73;4.07;;;;;;;;;;5054438;28;20387;-53
2023/07/07 03:26:22;;;;;;;4.40;3.83;;;;;;;;;;5053763;28;20428;-52
2023/07/07 03:28:48;;;;;;;5.33;4.00;;;;;;;;;;5053942;28;20945;-51
2023/07/07 03:31:22;;;;;;;4.33;3.73;;;;;;;;;;5053531;28;20395;-50
2023/07/07 03:33:49;;;;;;;9.20;3.80;;;;;;;;;;5053824;28;20419;-52
2023/07/07 03:36:15;;;;;;;12.40;4.17;;;;;;;;;;5053606;28;20954;-53
2023/07/07 03:38:41;;;;;;;8.27;4.13;;;;;;;;;;5052905;28;20512;-52
2023/07/07 03:41:09;;;;;;;5.20;3.73;;;;;;;;;;5053628;28;20770;-52
2023/07/07 03:43:37;;;;;;;8.93;5.77;;;;;;;;;;5053701;28;20430;-52
2023/07/07 03:46:03;;;;;;;3.77;3.40;;;;;;;;;;5053559;28;20459;-52
2023/07/07 03:48:29;;;;;;;4.40;4.00;;;;;;;;;;5053557;28;20424;-51
2023/07/07 03:50:59;;;;;;;6.40;3.80;;;;;;;;;;5053439;28;20596;-51
2023/07/07 03:53:26;;;;;;;13.33;4.07;;;;;;;;;;5051686;28;20496;-52
2023/07/07 03:55:53;;;;;;;7.83;3.83;;;;;;;;;;5053409;28;20470;-52
2023/07/07 03:58:19;;;;;;;7.70;4.43;;;;;;;;;;5053223;28;20909;-51
2023/07/07 04:00:46;;;;;;;5.50;4.00;;;;;;;;;;5053139;28;20438;-51
2023/07/07 04:03:12;;;;;;;10.30;4.63;;;;;;;;;;5053356;28;20566;-49
2023/07/07 04:05:42;;;;;;;4.90;4.30;;;;;;;;;;5045021;28;20804;-52
2023/07/07 04:08:08;;;;;;;8.17;4.53;;;;;;;;;;5053412;28;20886;-52
2023/07/07 04:10:34;;;;;;;6.03;4.30;;;;;;;;;;5053456;28;20506;-50
2023/07/07 04:13:00;;;;;;;8.23;4.20;;;;;;;;;;5052763;28;20922;-50
2023/07/07 04:15:26;;;;;;;6.17;3.87;;;;;;;;;;5052178;28;20503;-49
2023/07/07 04:17:52;;;;;;;4.57;3.67;;;;;;;;;;5052941;28;20425;-50
2023/07/07 04:20:18;;;;;;;6.33;4.50;;;;;;;;;;5052707;28;20435;-52
2023/07/07 04:22:44;;;;;;;4.73;3.97;;;;;;;;;;5052903;28;20471;-52
2023/07/07 04:25:14;;;;;;;8.00;4.00;;;;;;;;;;5053083;28;20416;-52
2023/07/07 04:27:40;;;;;;;5.90;3.97;;;;;;;;;;5050947;28;20434;-51
2023/07/07 04:30:07;;;;;;;5.63;4.17;;;;;;;;;;5052673;28;20416;-53
2023/07/07 04:32:32;;;;;;;4.80;4.03;;;;;;;;;;5052758;28;20409;-52
2023/07/07 04:34:59;;;;;;;5.67;4.00;;;;;;;;;;5050262;28;20449;-50
2023/07/07 04:37:25;;;;;;;5.77;4.30;;;;;;;;;;5052629;28;20457;-53
2023/07/07 04:39:51;;;;;;;14.20;5.47;;;;;;;;;;5052517;28;20431;-49
2023/07/07 04:42:18;;;;;;;6.27;4.30;;;;;;;;;;5052641;28;20509;-49
2023/07/07 04:44:44;;;;;;;7.37;4.97;;;;;;;;;;5053672;28;20977;-52
2023/07/07 04:47:10;;;;;;;5.53;4.03;;;;;;;;;;5039212;28;20429;-51
2023/07/07 04:49:36;;;;;;;4.40;4.00;;;;;;;;;;5042603;28;20915;-48
2023/07/07 04:52:02;;;;;;;10.60;3.97;;;;;;;;;;5038411;28;20947;-49
2023/07/07 04:54:28;;;;;;;6.93;3.80;;;;;;;;;;5052054;28;20430;-51
2023/07/07 04:56:54;;;;;;;6.10;3.97;;;;;;;;;;5035147;28;20441;-50
2023/07/07 04:59:20;;;;;;;10.43;5.67;;;;;;;;;;5052126;28;20405;-52
2023/07/07 05:01:46;;;;;;;12.40;6.27;;;;;;;;;;5052286;28;20484;-52
2023/07/07 05:04:12;;;;;;;11.20;6.07;;;;;;;;;;5052058;28;20409;-50
2023/07/07 05:06:39;;;;;;;9.03;5.67;;;;;;;;;;5052162;28;20971;-52
2023/07/07 05:09:06;;;;;;;6.23;5.20;;;;;;;;;;5052105;28;20465;-52
2023/07/07 05:11:33;;;;;;;7.83;6.10;;;;;;;;;;5051764;28;20421;-52
2023/07/07 05:13:59;;;;;;;14.23;7.13;;;;;;;;;;5051868;28;20424;-53
2023/07/07 05:16:26;;;;;;;11.27;6.30;;;;;;;;;;5042364;28;20470;-52
2023/07/07 05:18:53;;;;;;;9.27;6.73;;;;;;;;;;5051798;28;20531;-52
2023/07/07 05:21:21;;;;;;;9.90;6.27;;;;;;;;;;5051699;28;20410;-51
2023/07/07 05:23:47;;;;;;;6.47;5.40;;;;;;;;;;5051844;28;20412;-51
2023/07/07 05:26:12;;;;;;;11.50;5.63;;;;;;;;;;5051692;28;20421;-49
2023/07/07 05:28:38;;;;;;;10.97;5.57;;;;;;;;;;5051632;28;20528;-53
2023/07/07 05:31:06;;;;;;;7.23;5.47;;;;;;;;;;5055500;28;20413;-53
2023/07/07 05:33:32;;;;;;;8.80;5.43;;;;;;;;;;5051596;28;20468;-51
2023/07/07 05:36:02;;;;;;;9.57;5.00;;;;;;;;;;5051986;28;20563;-51
2023/07/07 05:38:28;;;;;;;7.20;4.27;;;;;;;;;;5051559;28;20974;-51
2023/07/07 05:40:54;;;;;;;7.80;5.53;;;;;;;;;;5051315;28;20407;-52
2023/07/07 05:43:22;;;;;;;10.80;5.10;;;;;;;;;;5051671;28;20385;-51
2023/07/07 05:45:54;;;;;;;9.77;4.77;;;;;;;;;;5051521;28;20421;-52
2023/07/07 05:48:20;;;;;;;10.30;5.47;;;;;;;;;;5051418;28;20425;-50
2023/07/07 05:50:46;;;;;;;9.17;5.57;;;;;;;;;;5051328;28;20409;-52
2023/07/07 05:53:12;;;;;;;7.53;5.20;;;;;;;;;;5051525;28;20405;-52
2023/07/07 05:55:38;;;;;;;9.00;6.00;;;;;;;;;;5051273;28;21000;-52
2023/07/07 05:58:05;;;;;;;9.10;5.00;;;;;;;;;;5051334;28;20414;-52
2023/07/07 06:00:32;;;;;;;11.50;5.00;;;;;;;;;;5051567;28;20836;-52
2023/07/07 06:02:59;;;;;;;6.50;5.00;;;;;;;;;;5057790;28;20394;-53
2023/07/07 06:05:25;;;;;;;10.30;6.23;;;;;;;;;;5058026;28;20386;-52
2023/07/07 06:07:52;;;;;;;6.90;5.30;;;;;;;;;;5048398;28;20847;-52
2023/07/07 06:10:18;;;;;;;13.03;6.03;;;;;;;;;;5057675;28;20413;-50
2023/07/07 06:12:44;;;;;;;9.97;5.43;;;;;;;;;;5057959;28;20417;-51
2023/07/07 06:15:10;;;;;;;9.87;6.53;;;;;;;;;;5057807;28;20435;-50
2023/07/07 06:17:36;;;;;;;10.30;5.93;;;;;;;;;;5057694;28;21039;-49
2023/07/07 06:20:02;;;;;;;10.47;6.07;;;;;;;;;;5057856;28;20460;-52
2023/07/07 06:22:28;;;;;;;11.27;4.83;;;;;;;;;;5057816;28;20398;-49
2023/07/07 06:24:54;;;;;;;6.27;5.30;;;;;;;;;;5058132;28;20382;-52
2023/07/07 06:27:20;;;;;;;6.60;4.70;;;;;;;;;;5057814;28;20444;-52
2023/07/07 06:29:47;;;;;;;4.80;4.33;;;;;;;;;;5057045;28;20411;-51
2023/07/07 06:32:13;;;;;;;5.03;4.20;;;;;;;;;;5057396;28;20947;-51
2023/07/07 06:34:39;;;;;;;5.07;3.50;;;;;;;;;;5058807;28;20382;-48
2023/07/07 06:37:05;;;;;;;5.93;4.40;;;;;;;;;;5057566;28;20453;-47
2023/07/07 06:39:31;;;;;;;5.60;3.90;;;;;;;;;;5056344;28;20734;-47
2023/07/07 06:42:00;;;;;;;4.03;3.43;;;;;;;;;;5056763;28;20423;-47
2023/07/07 06:44:26;;;;;;;5.80;4.00;;;;;;;;;;5056367;28;20787;-56
2023/07/07 06:46:52;;;;;;;5.87;3.67;;;;;;;;;;5059644;28;20413;-46
2023/07/07 06:49:18;;;;;;;6.43;3.93;;;;;;;;;;5057555;28;20436;-46
2023/07/07 06:51:44;;;;;;;4.30;3.90;;;;;;;;;;5055834;28;20822;-48
2023/07/07 06:54:10;;;;;;;3.20;2.70;;;;;;;;;;5055821;28;20387;-45
2023/07/07 06:56:36;;;;;;;5.40;3.17;;;;;;;;;;5056079;28;20441;-46
2023/07/07 06:59:04;;;;;;;3.47;3.17;;;;;;;;;;5054244;28;20905;-49
2023/07/07 07:01:30;;;;;;;3.70;3.20;;;;;;;;;;5056546;28;20384;-48
2023/07/07 07:03:58;;;;;;;3.60;3.20;;;;;;;;;;5055892;28;20409;-51
2023/07/07 07:06:24;;;;;;;3.83;3.00;;;;;;;;;;5056779;28;20434;-48
2023/07/07 07:08:50;;;;;;;2.80;2.60;;;;;;;;;;5056902;28;20415;-51
2023/07/07 07:11:16;;;;;;;3.20;2.90;;;;;;;;;;5057494;28;20752;-49
2023/07/07 07:13:42;;;;;;;3.50;2.90;;;;;;;;;;5051156;28;20400;-49
2023/07/07 07:16:09;;;;;;;4.53;3.00;;;;;;;;;;5052195;28;20431;-49
2023/07/07 07:18:35;;;;;;;7.57;3.10;;;;;;;;;;5054056;28;20485;-50
2023/07/07 07:21:01;;;;;;;3.40;3.00;;;;;;;;;;5059655;28;20402;-49
2023/07/07 07:23:27;;;;;;;5.97;2.73;;;;;;;;;;5037809;28;20832;-47
2023/07/07 07:25:53;;;;;;;3.63;3.30;;;;;;;;;;5046806;28;20707;-47
2023/07/07 07:28:19;;;;;;;3.73;3.27;;;;;;;;;;5053861;28;20453;-47
2023/07/07 07:30:45;;;;;;;4.00;3.03;;;;;;;;;;5054043;28;20456;-46
2023/07/07 07:33:13;;;;;;;4.80;3.00;;;;;;;;;;5058936;28;20472;-47
2023/07/07 07:35:39;;;;;;;4.17;2.97;;;;;;;;;;5045857;28;20513;-46
2023/07/07 07:38:05;;;;;;;4.40;3.03;;;;;;;;;;5054002;28;20428;-47
2023/07/07 07:40:31;;;;;;;6.23;3.40;;;;;;;;;;5053286;28;20412;-48
2023/07/07 07:42:57;;;;;;;6.03;2.90;;;;;;;;;;5052583;28;20447;-45
2023/07/07 07:45:23;;;;;;;5.20;4.03;;;;;;;;;;5053524;28;20452;-47
2023/07/07 07:47:51;;;;;;;3.63;3.17;;;;;;;;;;5053761;28;20493;-47
2023/07/07 07:50:17;;;;;;;7.73;3.10;;;;;;;;;;5053367;28;20410;-47
2023/07/07 07:52:43;;;;;;;4.80;3.37;;;;;;;;;;5053671;28;20412;-48
2023/07/07 07:55:10;;;;;;;3.00;2.67;;;;;;;;;;5053395;28;20460;-49
2023/07/07 07:57:36;;;;;;;3.37;2.57;;;;;;;;;;5053773;28;20440;-48
2023/07/07 08:00:04;;;;;;;6.33;3.23;;;;;;;;;;5053321;28;20412;-50
2023/07/07 08:02:30;;;;;;;4.70;3.10;;;;;;;;;;5053338;28;20929;-46
2023/07/07 08:04:56;;;;;;;4.17;3.20;;;;;;;;;;5053249;28;20410;-51
2023/07/07 08:07:22;;;;;;;3.53;3.20;;;;;;;;;;5053120;28;20864;-51
2023/07/07 08:09:48;;;;;;;4.00;3.13;;;;;;;;;;5054656;28;20421;-47
2023/07/07 08:12:14;;;;;;;8.10;2.70;;;;;;;;;;5053105;28;20777;-46
2023/07/07 08:14:40;;;;;;;4.40;2.73;;;;;;;;;;5052008;28;20467;-49
2023/07/07 08:17:08;;;;;;;2.60;2.43;;;;;;;;;;5051348;28;20457;-46
2023/07/07 08:19:35;;;;;;;3.33;2.57;;;;;;;;;;5061107;28;20891;-46
2023/07/07 08:22:03;;;;;;;2.80;2.43;;;;;;;;;;5051836;28;20411;-51
2023/07/07 08:24:29;;;;;;;4.00;2.30;;;;;;;;;;5052455;28;20791;-48
2023/07/07 08:26:55;;;;;;;2.43;2.23;;;;;;;;;;5053087;28;20417;-50
2023/07/07 08:29:21;;;;;;;2.60;2.40;;;;;;;;;;5052793;28;20437;-46
2023/07/07 08:31:47;;;;;;;3.33;2.57;;;;;;;;;;5052893;28;20966;-48
2023/07/07 08:34:13;;;;;;;6.30;2.17;;;;;;;;;;5052660;28;20919;-47
2023/07/07 08:36:39;;;;;;;2.33;1.97;;;;;;;;;;5052639;28;20465;-47
2023/07/07 08:39:32;;;;;;;2.07;1.87;;;;;;;;;;5052426;28;20457;-46
2023/07/07 08:42:02;;;;;;;4.10;2.10;;;;;;;;;;5043455;28;20913;-46
2023/07/07 08:44:29;;;;;;;4.50;3.77;;;;;;;;;;5052376;28;20416;-46
2023/07/07 08:47:16;;;;;;;2.40;2.20;;;;;;;;;;5052405;28;20416;-47
2023/07/07 08:49:47;;;;;;;2.80;2.43;;;;;;;;;;5044352;28;20421;-48
2023/07/07 08:52:16;;;;;;;2.43;1.83;;;;;;;;;;5052383;28;20524;-51
2023/07/07 08:54:56;;;;;;;2.50;2.30;;;;;;;;;;5052149;28;20924;-47
2023/07/07 08:57:25;;;;;;;2.23;2.03;;;;;;;;;;5052166;28;20911;-47
2023/07/07 08:59:55;;;;;;;2.43;1.87;;;;;;;;;;5052042;28;20416;-47
2023/07/07 09:02:39;;;;;;;3.73;2.20;;;;;;;;;;5052307;28;20757;-47
2023/07/07 09:05:05;;;;;;;5.47;2.10;;;;;;;;;;5052053;28;20452;-47
2023/07/07 09:07:49;;;;;;;2.47;2.10;;;;;;;;;;5051859;28;20492;-46
2023/07/07 09:10:32;;;;;;;2.60;2.40;;;;;;;;;;5051730;28;20420;-51
2023/07/07 09:13:00;;;;;;;3.20;2.90;;;;;;;;;;5052028;28;20424;-46
2023/07/07 09:15:28;;;;;;;2.40;2.23;;;;;;;;;;5051827;28;20457;-47
2023/07/07 09:17:59;;;;;;;4.83;2.17;;;;;;;;;;5051900;28;20429;-46
2023/07/07 09:20:27;;;;;;;2.80;2.57;;;;;;;;;;5059903;28;20596;-46
2023/07/07 09:22:56;;;;;;;2.40;2.20;;;;;;;;;;5051686;28;20417;-47
2023/07/07 09:25:28;;;;;;;2.87;2.10;;;;;;;;;;5051692;28;20899;-48
2023/07/07 09:28:05;;;;;;;2.60;2.40;;;;;;;;;;5051734;28;20422;-48
2023/07/07 09:30:36;;;;;;;3.43;2.37;;;;;;;;;;5050817;28;20477;-46
2023/07/07 09:33:02;;;;;;;1.87;1.77;;;;;;;;;;5051801;28;20413;-46
2023/07/07 09:35:34;;;;;;;3.30;2.10;;;;;;;;;;5049665;28;20467;-46
2023/07/07 09:38:12;;;;;;;3.97;2.40;;;;;;;;;;5051418;28;21016;-47
2023/07/07 09:40:55;;;;;;;2.30;2.10;;;;;;;;;;5051442;28;20420;-47
2023/07/07 09:43:35;;;;;;;2.53;2.00;;;;;;;;;;5051641;28;20898;-49
2023/07/07 09:46:01;;;;;;;2.13;1.93;;;;;;;;;;5051491;28;20467;-49
2023/07/07 09:48:36;;;;;;;2.00;1.90;;;;;;;;;;5051475;28;20432;-47
2023/07/07 09:51:12;;;;;;;2.30;2.10;;;;;;;;;;5051338;28;20281;-48
2023/07/07 09:53:40;;;;;;;2.60;2.40;;;;;;;;;;5050898;28;20412;-50
2023/07/07 09:56:10;;;;;;;2.23;2.07;;;;;;;;;;5051270;28;20449;-51
2023/07/07 09:58:45;;;;;;;3.77;2.10;;;;;;;;;;5051436;28;20413;-47
2023/07/07 10:01:11;;;;;;;4.27;2.20;;;;;;;;;;5051290;28;20409;-46
2023/07/07 10:03:43;;;;;;;4.17;2.20;;;;;;;;;;5051323;28;21000;-47
2023/07/07 10:06:32;;;;;;;2.13;1.93;;;;;;;;;;5051143;28;20950;-47
2023/07/07 10:08:59;;;;;;;5.43;2.00;;;;;;;;;;5051240;28;20469;-46
2023/07/07 10:11:36;;;;;;;2.00;1.90;;;;;;;;;;5051066;28;20417;-46
2023/07/07 10:14:03;;;;;;;2.60;2.30;;;;;;;;;;5051198;28;20417;-50
2023/07/07 10:16:32;;;;;;;2.50;2.13;;;;;;;;;;5051254;28;20468;-47
2023/07/07 10:19:05;;;;;;;2.53;2.03;;;;;;;;;;5050985;28;20491;-47
2023/07/07 10:21:31;;;;;;;4.33;2.13;;;;;;;;;;5050944;28;20405;-46
2023/07/07 10:23:57;;;;;;;2.93;2.23;;;;;;;;;;5051217;28;20451;-46
2023/07/07 10:26:23;;;;;;;3.17;2.33;;;;;;;;;;5051232;28;20182;-49
2023/07/07 10:28:49;;;;;;;3.30;2.30;;;;;;;;;;5051142;28;20437;-47
2023/07/07 10:31:16;;;;;;;4.13;2.50;;;;;;;;;;5050926;28;20895;-47
2023/07/07 10:33:43;;;;;;;2.97;2.63;;;;;;;;;;5050897;28;20420;-46
2023/07/07 10:36:29;;;;;;;2.90;2.30;;;;;;;;;;5050987;28;20500;-46
2023/07/07 10:38:56;;;;;;;3.07;1.90;;;;;;;;;;5051055;28;20439;-45
2023/07/07 10:41:23;;;;;;;2.40;2.10;;;;;;;;;;5051033;28;20413;-46
2023/07/07 10:43:49;;;;;;;4.30;2.10;;;;;;;;;;5050954;28;20412;-46
2023/07/07 10:46:15;;;;;;;2.07;1.73;;;;;;;;;;5050779;28;20405;-46
2023/07/07 10:48:44;;;;;;;3.80;2.50;;;;;;;;;;5053737;28;20429;-46
2023/07/07 10:51:25;;;;;;;2.60;2.33;;;;;;;;;;5054615;28;20425;-47
2023/07/07 10:54:06;;;;;;;2.63;2.33;;;;;;;;;;5054756;28;20792;-50
2023/07/07 10:56:43;;;;;;;1.87;1.77;;;;;;;;;;5054501;28;20457;-48
2023/07/07 10:59:24;;;;;;;2.10;2.00;;;;;;;;;;5054586;28;20487;-46
2023/07/07 11:02:10;;;;;;;2.17;2.03;;;;;;;;;;5054374;28;20423;-46
2023/07/07 11:04:39;;;;;;;2.20;1.97;;;;;;;;;;5054393;28;20489;-46
2023/07/07 11:07:22;;;;;;;2.53;1.77;;;;;;;;;;5054400;28;20995;-47
2023/07/07 11:09:51;;;;;;;2.50;2.30;;;;;;;;;;5054228;28;20421;-49
2023/07/07 11:12:25;;;;;;;2.67;2.30;;;;;;;;;;5054499;28;20835;-46
2023/07/07 11:14:51;;;;;;;4.13;2.20;;;;;;;;;;5054423;28;20505;-46
2023/07/07 11:17:17;;;;;;;3.63;1.90;;;;;;;;;;5054091;28;20504;-46
2023/07/07 11:19:50;;;;;;;16.77;2.70;;;;;;;;;;5053850;28;20413;-50
2023/07/07 11:22:16;;;;;;;7.10;2.67;;;;;;;;;;5054187;28;20175;-46
2023/07/07 11:24:54;;;;;;;2.67;1.97;;;;;;;;;;5053999;28;20414;-46
2023/07/07 11:27:20;;;;;;;2.70;2.50;;;;;;;;;;5054081;28;20203;-47
2023/07/07 11:30:00;;;;;;;2.20;2.00;;;;;;;;;;5053829;28;20410;-52
2023/07/07 11:32:34;;;;;;;2.00;1.90;;;;;;;;;;5054047;28;20648;-48
2023/07/07 11:35:20;;;;;;;2.50;2.30;;;;;;;;;;5053802;28;20459;-47
2023/07/07 11:37:56;;;;;;;1.73;1.63;;;;;;;;;;5053734;28;20441;-48
2023/07/07 11:40:21;;;;;;;3.20;1.90;;;;;;;;;;5053438;28;20432;-46
2023/07/07 11:43:06;;;;;;;2.40;1.90;;;;;;;;;;5053885;28;20880;-46
2023/07/07 11:45:52;;;;;;;2.43;2.07;;;;;;;;;;5053775;28;20345;-46
2023/07/07 11:48:37;;;;;;;2.00;1.77;;;;;;;;;;5054124;28;20507;-46
2023/07/07 11:51:18;;;;;;;7.40;2.10;;;;;;;;;;5053685;28;20459;-46
2023/07/07 11:53:50;;;;;;;2.40;2.20;;;;;;;;;;5052692;28;21138;-49
2023/07/07 11:56:35;;;;;;;3.57;2.17;;;;;;;;;;5054951;28;20550;-46
2023/07/07 11:59:01;;;;;;;2.20;1.87;;;;;;;;;;5052704;28;20566;-47
2023/07/07 12:01:36;;;;;;;2.00;1.90;;;;;;;;;;5053229;28;20918;-46
2023/07/07 12:04:06;;;;;;;1.90;1.80;;;;;;;;;;5053350;28;20655;-46
2023/07/07 12:06:45;;;;;;;1.80;1.70;;;;;;;;;;5053335;28;20433;-47
2023/07/07 12:09:30;;;;;;;2.37;2.17;;;;;;;;;;5051995;28;20420;-46
2023/07/07 12:12:10;;;;;;;3.23;2.53;;;;;;;;;;5051329;28;20942;-47
2023/07/07 12:14:42;;;;;;;2.13;2.00;;;;;;;;;;5052565;28;20409;-46
2023/07/07 12:17:13;;;;;;;3.53;2.10;;;;;;;;;;5052174;28;20449;-47
2023/07/07 12:19:42;;;;;;;2.30;2.10;;;;;;;;;;5050108;28;20409;-57
2023/07/07 12:22:14;;;;;;;3.57;2.57;;;;;;;;;;5052823;28;20441;-50
2023/07/07 12:24:43;;;;;;;3.33;1.90;;;;;;;;;;5040992;28;20421;-45
2023/07/07 12:27:14;;;;;;;1.93;1.80;;;;;;;;;;5046433;28;20537;-47
2023/07/07 12:29:42;;;;;;;2.13;1.80;;;;;;;;;;5049288;28;20409;-49
2023/07/07 12:32:08;;;;;;;3.20;1.80;;;;;;;;;;5051679;28;20420;-46
2023/07/07 12:34:39;;;;;;;2.27;2.07;;;;;;;;;;5052286;28;20417;-45
2023/07/07 12:37:17;;;;;;;3.73;1.93;;;;;;;;;;5048623;28;20464;-46
2023/07/07 12:39:50;;;;;;;2.27;1.90;;;;;;;;;;5041058;28;20447;-47
2023/07/07 12:42:16;;;;;;;2.80;2.10;;;;;;;;;;5050253;28;20413;-47
2023/07/07 12:44:43;;;;;;;2.47;2.10;;;;;;;;;;5052469;28;20903;-47
2023/07/07 12:47:29;;;;;;;2.80;1.80;;;;;;;;;;5052260;28;20447;-47
2023/07/07 12:49:57;;;;;;;2.60;2.40;;;;;;;;;;5046434;28;20436;-47
2023/07/07 12:52:24;;;;;;;1.97;1.60;;;;;;;;;;5051137;28;20433;-47
2023/07/07 12:54:54;;;;;;;2.57;2.37;;;;;;;;;;5050691;28;20880;-47
2023/07/07 12:57:25;;;;;;;2.97;2.40;;;;;;;;;;5052149;28;20444;-47
2023/07/07 12:59:52;;;;;;;1.80;1.60;;;;;;;;;;5052323;28;20486;-47
2023/07/07 13:02:22;;;;;;;4.03;2.17;;;;;;;;;;5052196;28;20420;-47
2023/07/07 13:04:57;;;;;;;3.30;2.30;;;;;;;;;;5052121;28;20409;-47
2023/07/07 13:07:28;;;;;;;2.70;2.03;;;;;;;;;;5051971;28;20513;-47
2023/07/07 13:09:55;;;;;;;2.20;2.00;;;;;;;;;;5051810;28;20922;-48
2023/07/07 13:12:47;;;;;;;2.83;1.93;;;;;;;;;;5051071;28;20883;-47
2023/07/07 13:15:20;;;;;;;2.40;1.80;;;;;;;;;;5048019;28;20465;-47
2023/07/07 13:17:47;;;;;;;4.50;2.23;;;;;;;;;;5053492;28;20459;-46
2023/07/07 13:20:17;;;;;;;2.00;1.80;;;;;;;;;;5050996;28;20410;-47
2023/07/07 13:22:50;;;;;;;4.60;1.80;;;;;;;;;;5050173;28;20409;-47
2023/07/07 13:25:18;;;;;;;6.23;2.37;;;;;;;;;;5051874;28;20413;-47
2023/07/07 13:27:44;;;;;;;5.23;2.20;;;;;;;;;;5051523;28;20512;-47
2023/07/07 13:30:21;;;;;;;3.23;2.20;;;;;;;;;;5050336;28;20848;-47
2023/07/07 13:32:47;;;;;;;4.53;2.20;;;;;;;;;;5044737;28;20918;-49
2023/07/07 13:35:13;;;;;;;6.27;2.40;;;;;;;;;;5051637;28;20807;-47
2023/07/07 13:37:38;;;;;;;3.00;2.23;;;;;;;;;;5051827;28;20417;-47
2023/07/07 13:40:05;;;;;;;2.20;2.00;;;;;;;;;;5051503;28;20166;-47
2023/07/07 13:42:32;;;;;;;2.00;1.90;;;;;;;;;;5052016;28;20186;-46
2023/07/07 13:45:00;;;;;;;2.90;1.80;;;;;;;;;;5051456;28;20444;-47
2023/07/07 13:47:28;;;;;;;3.23;1.80;;;;;;;;;;5051287;28;20475;-47
2023/07/07 13:49:57;;;;;;;5.87;1.90;;;;;;;;;;5051395;28;20433;-46
2023/07/07 13:52:24;;;;;;;4.20;2.20;;;;;;;;;;5051500;28;20416;-46
2023/07/07 13:54:50;;;;;;;3.70;1.77;;;;;;;;;;5051416;28;20405;-46
2023/07/07 13:57:21;;;;;;;1.80;1.70;;;;;;;;;;5051292;28;20447;-47
2023/07/07 13:59:48;;;;;;;3.07;2.40;;;;;;;;;;5051102;28;20385;-49
2023/07/07 14:02:15;;;;;;;2.17;1.97;;;;;;;;;;5051228;28;20492;-47
2023/07/07 14:04:45;;;;;;;1.80;1.70;;;;;;;;;;5051210;28;20413;-49
2023/07/07 14:07:18;;;;;;;3.00;1.93;;;;;;;;;;5051143;28;20942;-47
2023/07/07 14:09:45;;;;;;;3.03;2.00;;;;;;;;;;5044568;28;20401;-47
2023/07/07 14:12:12;;;;;;;2.30;2.10;;;;;;;;;;5051222;28;20416;-48
2023/07/07 14:14:39;;;;;;;2.50;2.30;;;;;;;;;;5041757;28;20406;-46
2023/07/07 14:17:14;;;;;;;2.30;2.17;;;;;;;;;;5050341;28;20467;-46
2023/07/07 14:19:53;;;;;;;3.23;2.23;;;;;;;;;;5050491;28;20424;-48
2023/07/07 14:22:19;;;;;;;2.47;2.37;;;;;;;;;;5051985;28;20393;-46
2023/07/07 14:24:45;;;;;;;4.63;2.27;;;;;;;;;;5055327;28;20444;-47
2023/07/07 14:27:13;;;;;;;7.63;2.30;;;;;;;;;;5055043;28;20586;-46
2023/07/07 14:29:40;;;;;;;2.00;1.90;;;;;;;;;;5055012;28;20428;-49
2023/07/07 14:32:11;;;;;;;5.53;2.27;;;;;;;;;;5055187;28;20413;-46
2023/07/07 14:34:44;;;;;;;2.70;1.90;;;;;;;;;;5055087;28;20439;-49
2023/07/07 14:37:17;;;;;;;2.53;1.93;;;;;;;;;;5054905;28;20465;-48
2023/07/07 14:39:48;;;;;;;2.67;2.00;;;;;;;;;;5054744;28;20436;-47
2023/07/07 14:42:18;;;;;;;2.70;2.13;;;;;;;;;;5059011;28;20412;-46
2023/07/07 14:44:46;;;;;;;3.10;1.83;;;;;;;;;;5072894;28;20393;-46
2023/07/07 14:47:18;;;;;;;3.53;2.20;;;;;;;;;;5055022;28;20918;-46
2023/07/07 14:49:44;;;;;;;2.70;2.50;;;;;;;;;;5054669;28;20906;-46
2023/07/07 14:52:17;;;;;;;2.23;1.90;;;;;;;;;;5054416;28;20417;-47